Terminal Aerodrome Forecast
Issued by NWS Quad Cities IA IL

Home | Current Version | Previous Version | Text Only | Print | Product List | Glossary On
Versions: 1 2 3 4 5 6 7 8 9 10 11 12 13 14 15 16 17 18 19 20 21
000
FTUS43 KDVN 291141
TAFDBQ
TAF
KDBQ 291141Z 2912/3012 05008KT P6SM OVC008
     FM291600 03007KT P6SM VCSH OVC010
     FM291900 05008KT P6SM VCTS BKN025CB
     FM292300 05007KT P6SM BKN035
     FM300600 04003KT P6SM SCT015 BKN025
     FM300900 01003KT 3SM BR BKN015=

USA.gov is the U.S. government's official web portal to all federal, state and local government web resources and services.